createdAt,value
2023-02-20T00:00:22.424Z,4.599
2023-02-20T00:01:21.872Z,4.400
2023-02-20T00:02:20.397Z,4.5
2023-02-20T00:04:21.436Z,4.599
2023-02-20T00:05:21.148Z,4.699
2023-02-20T00:06:21.020Z,4.300
2023-02-20T00:07:20.925Z,4.199
2023-02-20T00:08:20.429Z,4.5
2023-02-20T00:09:20.713Z,4.300
2023-02-20T00:10:21.095Z,4.5
2023-02-20T00:11:21.259Z,4.199
2023-02-20T00:12:20.587Z,3.900
2023-02-20T00:14:20.889Z,4.099
2023-02-20T00:15:20.883Z,4.300
2023-02-20T00:17:20.947Z,4.099
2023-02-20T00:18:20.602Z,3.700
2023-02-20T00:19:20.668Z,3.799
2023-02-20T00:20:20.896Z,3.900
2023-02-20T00:21:20.557Z,4.300
2023-02-20T00:22:21.102Z,3.900
2023-02-20T00:23:20.693Z,4.300
2023-02-20T00:24:20.354Z,3.700
2023-02-20T00:25:21.678Z,4.199
2023-02-20T00:26:20.958Z,4.099
2023-02-20T00:27:21.449Z,3.900
2023-02-20T00:29:21.410Z,4.300
2023-02-20T00:30:21.435Z,4.5
2023-02-20T00:31:21.277Z,4.400
2023-02-20T00:32:20.908Z,4.300
2023-02-20T00:33:20.954Z,4.199
2023-02-20T00:34:21.131Z,4.300
2023-02-20T00:35:21.520Z,4.400
2023-02-20T00:37:20.589Z,4
2023-02-20T00:39:20.487Z,4.300
2023-02-20T00:40:21.110Z,4.099
2023-02-20T00:43:20.748Z,3.799
2023-02-20T00:44:20.943Z,4
2023-02-20T00:45:20.992Z,4.099
2023-02-20T00:46:20.921Z,3.5
2023-02-20T00:47:20.622Z,3.700
2023-02-20T00:48:21.053Z,3.900
2023-02-20T00:49:21.080Z,4
2023-02-20T00:50:21.139Z,4.099
2023-02-20T00:51:21.081Z,3.799
2023-02-20T00:52:20.862Z,4
2023-02-20T00:54:20.600Z,3.599
2023-02-20T00:57:21.487Z,3.5
2023-02-20T00:58:21.560Z,3.799
2023-02-20T00:59:20.781Z,3.400
2023-02-20T01:01:24.368Z,3.5
2023-02-20T01:02:21.221Z,3.400
2023-02-20T01:03:21.247Z,3.599
2023-02-20T01:04:20.969Z,3.5
2023-02-20T01:05:20.597Z,3.400
2023-02-20T01:06:21.257Z,3.299
2023-02-20T01:07:21.154Z,3.5
2023-02-20T01:08:20.640Z,3.200
2023-02-20T01:09:21.407Z,3.299
2023-02-20T01:10:21.437Z,3.400
2023-02-20T01:11:20.709Z,3.200
2023-02-20T01:12:20.981Z,3.599
2023-02-20T01:13:20.402Z,3.299
2023-02-20T01:14:21.127Z,3.400
2023-02-20T01:15:21.491Z,3.200
2023-02-20T01:16:21.488Z,3.5
2023-02-20T01:17:20.443Z,3.400
2023-02-20T01:20:20.607Z,3.599
2023-02-20T01:22:21.189Z,3.400
2023-02-20T01:23:20.344Z,3.599
2023-02-20T01:24:21.291Z,3.5
2023-02-20T01:25:21.187Z,3.799
2023-02-20T01:26:20.782Z,3.400
2023-02-20T01:27:20.213Z,3.5
2023-02-20T01:30:21.490Z,3.599
2023-02-20T01:31:20.314Z,3.799
2023-02-20T01:32:21.412Z,3.700
2023-02-20T01:33:20.981Z,3.5
2023-02-20T01:34:20.902Z,3.700
2023-02-20T01:35:21.175Z,3.599
2023-02-20T01:36:21.298Z,3.700
2023-02-20T01:37:20.712Z,3.5
2023-02-20T01:38:21.064Z,3.799
2023-02-20T01:40:20.992Z,4
2023-02-20T01:41:20.110Z,3.799
2023-02-20T01:42:20.773Z,4
2023-02-20T01:44:20.432Z,4.099
2023-02-20T01:45:21.370Z,4.599
2023-02-20T01:46:20.941Z,4.099
2023-02-20T01:48:20.178Z,4.300
2023-02-20T01:49:20.812Z,4.400
2023-02-20T01:50:21.157Z,4.300
2023-02-20T01:51:20.609Z,4.5
2023-02-20T01:52:20.084Z,4.300
2023-02-20T01:53:20.223Z,4.800
2023-02-20T01:54:20.332Z,4.599
2023-02-20T01:55:20.890Z,5
2023-02-20T01:56:20.435Z,4.699
2023-02-20T01:58:20.913Z,5.199
2023-02-20T01:59:20.968Z,4.800
2023-02-20T02:00:22.231Z,4.699
2023-02-20T02:01:21.150Z,5
2023-02-20T02:02:21.110Z,4.800
2023-02-20T02:05:23.476Z,5.099
2023-02-20T02:06:21.543Z,5.900
2023-02-20T02:07:19.523Z,5
2023-02-20T02:08:20.833Z,5.300
2023-02-20T02:09:20.592Z,5.199
2023-02-20T02:10:21.012Z,5.400
2023-02-20T02:11:20.667Z,6
2023-02-20T02:12:20.985Z,5.5
2023-02-20T02:14:20.979Z,5.400
2023-02-20T02:15:20.896Z,5.900
2023-02-20T02:16:20.714Z,6.199
2023-02-20T02:18:20.754Z,6.699
2023-02-20T02:20:20.939Z,6.800
2023-02-20T02:21:20.638Z,6.5
2023-02-20T02:22:20.885Z,7
2023-02-20T02:23:20.548Z,6.199
2023-02-20T02:25:21.288Z,6
2023-02-20T02:27:20.596Z,6.599
2023-02-20T02:28:21.099Z,5.800
2023-02-20T02:29:20.449Z,6.5
2023-02-20T02:30:21.922Z,6.400
2023-02-20T02:31:20.649Z,6.699
2023-02-20T02:32:20.395Z,6.099
2023-02-20T02:34:21.098Z,5.800
2023-02-20T02:35:21.610Z,6.099
2023-02-20T02:36:20.633Z,6.5
2023-02-20T02:37:20.631Z,6.099
2023-02-20T02:38:20.830Z,6
2023-02-20T02:39:20.619Z,7.099
2023-02-20T02:40:21.300Z,7
2023-02-20T02:41:20.383Z,6.199
2023-02-20T02:42:20.892Z,6.900
2023-02-20T02:43:20.351Z,6.699
2023-02-20T02:46:20.929Z,6.800
2023-02-20T02:47:20.275Z,6.599
2023-02-20T02:48:20.716Z,6.300
2023-02-20T02:49:20.473Z,6.099
2023-02-20T02:50:20.959Z,6.199
2023-02-20T02:51:20.646Z,6.300
2023-02-20T02:52:20.529Z,7
2023-02-20T02:53:20.735Z,6.900
2023-02-20T02:54:20.554Z,6.599
2023-02-20T02:55:21.276Z,7
2023-02-20T02:56:20.868Z,6.800
2023-02-20T02:57:20.810Z,6.5
2023-02-20T02:58:21.278Z,5.900
2023-02-20T02:59:21.133Z,6.199
2023-02-20T03:00:22.656Z,6.699
2023-02-20T03:01:21.689Z,6.199
2023-02-20T03:02:20.454Z,6.900
2023-02-20T03:03:21.205Z,6.300
2023-02-20T03:04:21.395Z,6.5
2023-02-20T03:06:21.412Z,6.300
2023-02-20T03:07:20.405Z,6.5
2023-02-20T03:08:21.166Z,6.300
2023-02-20T03:09:20.907Z,6.800
2023-02-20T03:10:20.937Z,7
2023-02-20T03:11:20.012Z,6.300
2023-02-20T03:12:21.290Z,6
2023-02-20T03:14:20.808Z,6.699
2023-02-20T03:15:21.163Z,6.5
2023-02-20T03:16:20.695Z,5.900
2023-02-20T03:17:20.553Z,5.400
2023-02-20T03:18:21.063Z,5.300
2023-02-20T03:19:21.190Z,5.699
2023-02-20T03:20:21.239Z,5.5
2023-02-20T03:21:20.767Z,5.400
2023-02-20T03:22:20.406Z,5.099
2023-02-20T03:23:20.629Z,5.300
2023-02-20T03:24:20.568Z,5.5
2023-02-20T03:25:20.631Z,4.699
2023-02-20T03:26:21.009Z,5.300
2023-02-20T03:27:20.371Z,5.199
2023-02-20T03:29:21.073Z,5.099
2023-02-20T03:30:21.030Z,4.800
2023-02-20T03:31:21.101Z,4.699
2023-02-20T03:33:21.346Z,5.099
2023-02-20T03:35:20.839Z,4.599
2023-02-20T03:36:20.093Z,4.5
2023-02-20T03:37:20.755Z,4.900
2023-02-20T03:38:21.080Z,4.800
2023-02-20T03:39:21.290Z,4.5
2023-02-20T03:40:21.463Z,4.099
2023-02-20T03:42:20.754Z,4
2023-02-20T03:43:21.196Z,3.900
2023-02-20T03:44:20.817Z,4.199
2023-02-20T03:45:21.518Z,3.599
2023-02-20T03:47:21.388Z,3.400
2023-02-20T03:48:21.308Z,3.200
2023-02-20T03:49:20.712Z,3.5
2023-02-20T03:50:20.045Z,3
2023-02-20T03:51:21.449Z,2.900
2023-02-20T03:52:21.191Z,3.200
2023-02-20T03:53:20.612Z,3
2023-02-20T03:54:20.196Z,3.099
2023-02-20T03:55:21.105Z,2.700
2023-02-20T03:56:20.250Z,2.799
2023-02-20T03:57:21.490Z,2.700
2023-02-20T03:58:20.901Z,2.799
2023-02-20T03:59:21.129Z,2.5
2023-02-20T04:00:22.412Z,2.599
2023-02-20T04:01:21.576Z,2.799
2023-02-20T04:02:21.353Z,2.700
2023-02-20T04:03:21.698Z,2.599
2023-02-20T04:04:21.198Z,2.900
2023-02-20T04:05:22.360Z,2.400
2023-02-20T04:06:21.074Z,2.599
2023-02-20T04:08:20.771Z,2.299
2023-02-20T04:09:21.209Z,2.200
2023-02-20T04:10:21.547Z,2.700
2023-02-20T04:11:21.353Z,2.5
2023-02-20T04:12:21.774Z,2.099
2023-02-20T04:13:21.446Z,2.200
2023-02-20T04:14:21.361Z,2
2023-02-20T04:15:21.494Z,2.299
2023-02-20T04:16:21.005Z,2.200
2023-02-20T04:17:21.348Z,2.099
2023-02-20T04:18:21.215Z,2
2023-02-20T04:20:21.311Z,2.099
2023-02-20T04:21:21.151Z,2.299
2023-02-20T04:22:21.393Z,2.200
2023-02-20T04:23:20.568Z,2.099
2023-02-20T04:26:21.578Z,1.899
2023-02-20T04:27:21.054Z,2
2023-02-20T04:28:20.036Z,1.799
2023-02-20T04:29:20.969Z,1.899
2023-02-20T04:32:20.508Z,1.600
2023-02-20T04:33:20.977Z,1.899
2023-02-20T04:35:20.940Z,2.099
2023-02-20T04:36:21.101Z,2
2023-02-20T04:37:21.414Z,1.799
2023-02-20T04:40:20.990Z,1.700
2023-02-20T04:41:21.366Z,1.799
2023-02-20T04:42:20.897Z,1.700
2023-02-20T04:43:20.499Z,1.799
2023-02-20T04:44:21.358Z,2
2023-02-20T04:45:21.861Z,1.799
2023-02-20T04:46:21.567Z,1.899
2023-02-20T04:47:21.462Z,2.400
2023-02-20T04:48:21.330Z,1.799
2023-02-20T04:49:21.054Z,2.099
2023-02-20T04:50:21.634Z,1.899
2023-02-20T04:51:21.543Z,1.799
2023-02-20T04:52:20.497Z,2
2023-02-20T04:53:20.341Z,1.899
2023-02-20T04:54:20.806Z,2.200
2023-02-20T04:55:21.172Z,2.099
2023-02-20T04:57:21.023Z,2.200
2023-02-20T04:58:21.088Z,2.099
2023-02-20T04:59:21.228Z,2.5
2023-02-20T05:00:22.796Z,2.400
2023-02-20T05:01:21.430Z,2.200
2023-02-20T05:02:21.079Z,2.5
2023-02-20T05:03:20.986Z,2.700
2023-02-20T05:04:20.931Z,2.799
2023-02-20T05:06:21.223Z,2.599
2023-02-20T05:07:21.463Z,2.5
2023-02-20T05:08:21.655Z,2.700
2023-02-20T05:09:20.648Z,2.599
2023-02-20T05:10:21.170Z,2.799
2023-02-20T05:12:20.920Z,2.599
2023-02-20T05:13:21.476Z,2.700
2023-02-20T05:15:21.329Z,2.900
2023-02-20T05:16:21.479Z,2.5
2023-02-20T05:17:21.177Z,2.700
2023-02-20T05:18:20.804Z,2.599
2023-02-20T05:19:20.988Z,2.799
2023-02-20T05:20:22.072Z,2.700
2023-02-20T05:22:22.762Z,2.5
2023-02-20T05:24:21.033Z,2.400
2023-02-20T05:25:21.610Z,2.700
2023-02-20T05:26:21.332Z,2.799
2023-02-20T05:27:21.191Z,2.700
2023-02-20T05:29:21.015Z,2.5
2023-02-20T05:30:21.619Z,2.599
2023-02-20T05:31:20.935Z,2.5
2023-02-20T05:33:20.992Z,2.700
2023-02-20T05:34:21.067Z,2.400
2023-02-20T05:36:20.594Z,2.200
2023-02-20T05:37:20.515Z,2.400
2023-02-20T05:38:21.671Z,2.099
2023-02-20T05:39:20.974Z,2.400
2023-02-20T05:40:21.123Z,2.200
2023-02-20T05:41:20.627Z,2.5
2023-02-20T05:42:21.417Z,2.400
2023-02-20T05:43:21.498Z,2
2023-02-20T05:44:20.769Z,1.799
2023-02-20T05:45:21.295Z,2
2023-02-20T05:47:21.850Z,1.799
2023-02-20T05:48:20.858Z,2.099
2023-02-20T05:49:20.846Z,2.299
2023-02-20T05:50:21.252Z,2
2023-02-20T05:51:22.020Z,2.200
2023-02-20T05:52:20.828Z,1.899
2023-02-20T05:53:21.390Z,2.200
2023-02-20T05:54:20.705Z,2
2023-02-20T05:58:21.155Z,2.099
2023-02-20T05:59:20.895Z,2
2023-02-20T06:00:23.128Z,1.899
2023-02-20T06:02:40.282Z,2
2023-02-20T06:03:21.227Z,1.899
2023-02-20T06:04:21.523Z,1.600
2023-02-20T06:05:20.998Z,1.799
2023-02-20T06:06:20.827Z,1.600
2023-02-20T06:07:20.814Z,1.700
2023-02-20T06:08:21.912Z,1.799
2023-02-20T06:09:20.731Z,1.399
2023-02-20T06:10:21.214Z,1.5
2023-02-20T06:11:20.958Z,1.600
2023-02-20T06:13:21.249Z,1.799
2023-02-20T06:14:21.841Z,1.600
2023-02-20T06:16:22.346Z,1.5
2023-02-20T06:17:21.630Z,1.700
2023-02-20T06:18:20.944Z,1.600
2023-02-20T06:19:21.152Z,1.299
2023-02-20T06:20:20.454Z,1.799
2023-02-20T06:21:21.634Z,1.5
2023-02-20T06:22:20.616Z,1.600
2023-02-20T06:23:21.168Z,1.399
2023-02-20T06:24:20.731Z,1.5
2023-02-20T06:25:21.095Z,1.399
2023-02-20T06:26:21.151Z,1.5
2023-02-20T06:27:21.456Z,1.600
2023-02-20T06:28:21.025Z,1.200
2023-02-20T06:29:20.870Z,1.700
2023-02-20T06:30:21.262Z,1.5
2023-02-20T06:31:21.731Z,1.299
2023-02-20T06:32:20.737Z,1.700
2023-02-20T06:33:21.281Z,1.5
2023-02-20T06:35:21.658Z,1.399
2023-02-20T06:36:20.637Z,1.299
2023-02-20T06:37:20.664Z,1.600
2023-02-20T06:39:21.603Z,1.200
2023-02-20T06:40:20.538Z,1.299
2023-02-20T06:42:21.274Z,1.200
2023-02-20T06:43:21.300Z,1.399
2023-02-20T06:45:21.425Z,1.5
2023-02-20T06:46:21.616Z,1.299
2023-02-20T06:47:20.843Z,1.5
2023-02-20T06:48:20.578Z,1.299
2023-02-20T06:50:21.610Z,1.5
2023-02-20T06:51:20.571Z,1.299
2023-02-20T06:52:20.750Z,1.399
2023-02-20T06:53:20.182Z,1.5
2023-02-20T06:54:21.231Z,1.299
2023-02-20T06:55:21.107Z,1.600
2023-02-20T06:56:21.780Z,1.100
2023-02-20T06:57:21.056Z,1.299
2023-02-20T06:58:21.839Z,1.100
2023-02-20T06:59:21.358Z,1.299
2023-02-20T07:00:22.613Z,1.399
2023-02-20T07:01:22.258Z,1.200
2023-02-20T07:03:21.479Z,1.399
2023-02-20T07:04:21.030Z,1.299
2023-02-20T07:06:22.703Z,1.399
2023-02-20T07:07:21.847Z,1.299
2023-02-20T07:09:21.274Z,1.600
2023-02-20T07:10:21.913Z,1
2023-02-20T07:11:20.678Z,1.100
2023-02-20T07:12:20.834Z,1.200
2023-02-20T07:14:21.705Z,1.5
2023-02-20T07:15:21.307Z,1.399
2023-02-20T07:17:21.198Z,1.299
2023-02-20T07:21:21.444Z,1.100
2023-02-20T07:22:21.206Z,1.299
2023-02-20T07:23:21.497Z,1.200
2023-02-20T07:25:22.371Z,1.399
2023-02-20T07:26:21.379Z,1.299
2023-02-20T07:27:21.506Z,1.399
2023-02-20T07:28:21.179Z,1.299
2023-02-20T07:30:21.078Z,1.5
2023-02-20T07:31:21.979Z,1.299
2023-02-20T07:32:22.312Z,1.200
2023-02-20T07:33:21.663Z,1.600
2023-02-20T07:34:20.947Z,1.5
2023-02-20T07:37:21.929Z,1.399
2023-02-20T07:38:22.470Z,1.5
2023-02-20T07:44:21.653Z,1.700
2023-02-20T07:45:22.248Z,1.5
2023-02-20T07:46:21.385Z,1.600
2023-02-20T07:47:21.657Z,1.399
2023-02-20T07:48:21.981Z,1.600
2023-02-20T07:49:21.537Z,1.5
2023-02-20T07:50:22.084Z,1.600
2023-02-20T07:52:24.595Z,1.799
2023-02-20T07:55:21.695Z,1.700
2023-02-20T07:56:22.207Z,1.399
2023-02-20T07:57:21.213Z,1.600
2023-02-20T07:58:21.791Z,1.5
2023-02-20T07:59:21.370Z,1.600
2023-02-20T08:01:22.205Z,1.700
2023-02-20T08:03:21.462Z,1.600
2023-02-20T08:06:20.991Z,1.5
2023-02-20T08:07:21.494Z,1.600
2023-02-20T08:09:21.832Z,1.399
2023-02-20T08:10:23.175Z,1.600
2023-02-20T08:12:22.045Z,1.700
2023-02-20T08:13:22.009Z,1.5
2023-02-20T08:14:22.475Z,1.799
2023-02-20T08:15:21.899Z,1.5
2023-02-20T08:16:21.875Z,1.600
2023-02-20T08:17:20.902Z,1.799
2023-02-20T08:18:23.827Z,1.899
2023-02-20T08:19:35.502Z,1.799
2023-02-20T08:20:21.638Z,1.899
2023-02-20T08:21:21.496Z,1.700
2023-02-20T08:22:23.982Z,1.799
2023-02-20T08:23:21.454Z,1.600
2023-02-20T08:25:21.690Z,1.700
2023-02-20T08:26:21.403Z,1.600
2023-02-20T08:27:21.525Z,1.700
2023-02-20T08:28:21.441Z,1.5
2023-02-20T08:30:22.352Z,1.399
2023-02-20T08:31:40.948Z,1.5
2023-02-20T08:33:21.828Z,1.700
2023-02-20T08:34:21.482Z,1.399
2023-02-20T08:36:21.763Z,1.5
2023-02-20T08:39:21.653Z,1.700
2023-02-20T08:40:21.636Z,1.600
2023-02-20T08:41:21.468Z,1.700
2023-02-20T08:42:20.688Z,1.399
2023-02-20T08:43:21.653Z,1.700
2023-02-20T08:45:22.155Z,1.600
2023-02-20T08:46:21.046Z,1.399
2023-02-20T08:49:22.933Z,1.799
2023-02-20T08:50:21.977Z,1.5
2023-02-20T08:51:22.324Z,1.700
2023-02-20T08:52:21.484Z,1.399
2023-02-20T08:53:21.429Z,1.200
2023-02-20T08:54:21.326Z,1.600
2023-02-20T08:55:21.407Z,1.299
2023-02-20T08:56:21.838Z,1.399
2023-02-20T08:57:21.857Z,1.5
2023-02-20T08:58:22.800Z,1.399
2023-02-20T08:59:21.547Z,1.600
2023-02-20T09:00:24.661Z,1.399
2023-02-20T09:03:21.755Z,1.600
2023-02-20T09:04:21.595Z,1.5
2023-02-20T09:05:22.043Z,1.700
2023-02-20T09:06:21.985Z,1.5
2023-02-20T09:07:21.532Z,1.600
2023-02-20T09:08:22.557Z,1.5
2023-02-20T09:10:22.138Z,1.399
2023-02-20T09:11:21.504Z,1.600
2023-02-20T09:13:21.990Z,1.299
2023-02-20T09:14:22.407Z,1.5
2023-02-20T09:16:22.426Z,1.299
2023-02-20T09:17:22.341Z,1.399
2023-02-20T09:18:22.069Z,1.600
2023-02-20T09:19:21.153Z,1.399
2023-02-20T09:20:22.065Z,1.600
2023-02-20T09:21:21.459Z,1.5
2023-02-20T09:22:21.795Z,1.399
2023-02-20T09:25:21.704Z,1.5
2023-02-20T09:26:21.315Z,1.399
2023-02-20T09:27:21.411Z,1.5
2023-02-20T09:28:21.621Z,1.299
2023-02-20T09:29:21.881Z,1.399
2023-02-20T09:34:22.043Z,1.700
2023-02-20T09:35:21.680Z,1.600
2023-02-20T09:36:21.716Z,1.899
2023-02-20T09:37:21.101Z,1.700
2023-02-20T09:38:21.890Z,2
2023-02-20T09:39:21.683Z,1.899
2023-02-20T09:40:22.535Z,1.799
2023-02-20T09:41:21.725Z,2.299
2023-02-20T09:42:21.616Z,2.200
2023-02-20T09:43:21.306Z,2.099
2023-02-20T09:45:22.021Z,2.400
2023-02-20T09:46:21.443Z,2.200
2023-02-20T09:48:20.967Z,2.299
2023-02-20T09:49:21.913Z,2.5
2023-02-20T09:50:22.231Z,2.400
2023-02-20T09:51:21.580Z,2.299
2023-02-20T09:52:21.386Z,2.200
2023-02-20T09:53:21.095Z,2.099
2023-02-20T09:54:21.129Z,2
2023-02-20T09:56:22.134Z,2.299
2023-02-20T09:58:21.150Z,2.200
2023-02-20T10:00:22.709Z,2.400
2023-02-20T10:01:22.330Z,2.299
2023-02-20T10:03:21.464Z,2.200
2023-02-20T10:04:20.978Z,2
2023-02-20T10:05:21.586Z,2.299
2023-02-20T10:06:21.542Z,2.099
2023-02-20T10:10:21.301Z,1.899
2023-02-20T10:11:21.384Z,2.400
2023-02-20T10:12:21.443Z,2.200
2023-02-20T10:13:21.447Z,2.099
2023-02-20T10:15:21.763Z,2.200
2023-02-20T10:16:21.534Z,2.099
2023-02-20T10:17:21.375Z,2
2023-02-20T10:18:21.926Z,2.400
2023-02-20T10:19:21.350Z,2.200
2023-02-20T10:20:21.989Z,2.400
2023-02-20T10:21:21.902Z,2.200
2023-02-20T10:22:21.558Z,2.400
2023-02-20T10:25:21.743Z,2.200
2023-02-20T10:26:21.825Z,2.5
2023-02-20T10:27:22.217Z,2.599
2023-02-20T10:28:21.772Z,2.5
2023-02-20T10:29:21.830Z,2.599
2023-02-20T10:30:21.896Z,2.400
2023-02-20T10:31:22.379Z,2.5
2023-02-20T10:32:20.991Z,2.400
2023-02-20T10:34:21.451Z,2.599
2023-02-20T10:35:21.931Z,2.5
2023-02-20T10:38:21.060Z,2.700
2023-02-20T10:39:20.925Z,2.599
2023-02-20T10:41:21.695Z,2.900
2023-02-20T10:43:21.725Z,2.599
2023-02-20T10:44:21.520Z,2.700
2023-02-20T10:45:21.682Z,2.599
2023-02-20T10:46:21.026Z,2.900
2023-02-20T10:47:21.549Z,2.599
2023-02-20T10:49:21.119Z,2.5
2023-02-20T10:50:20.803Z,3
2023-02-20T10:51:21.619Z,2.799
2023-02-20T10:52:33.860Z,2.599
2023-02-20T10:53:21.746Z,2.799
2023-02-20T10:54:21.459Z,2.599
2023-02-20T10:56:21.276Z,2.799
2023-02-20T10:57:21.792Z,2.599
2023-02-20T10:58:21.233Z,2.700
2023-02-20T10:59:20.831Z,2.900
2023-02-20T11:00:23.634Z,2.599
2023-02-20T11:01:22.551Z,2.900
2023-02-20T11:04:21.846Z,3.099
2023-02-20T11:05:23.703Z,3
2023-02-20T11:06:22.684Z,2.799
2023-02-20T11:07:23.125Z,2.599
2023-02-20T11:08:21.957Z,2.700
2023-02-20T11:09:23.369Z,2.599
2023-02-20T11:10:21.944Z,2.799
2023-02-20T11:11:21.609Z,3
2023-02-20T11:12:21.678Z,2.900
2023-02-20T11:13:22.147Z,2.700
2023-02-20T11:14:25.486Z,3.099
2023-02-20T11:15:21.207Z,2.799
2023-02-20T11:16:23.232Z,2.900
2023-02-20T11:17:23.066Z,3.099
2023-02-20T11:19:21.808Z,2.900
2023-02-20T11:22:21.048Z,2.799
2023-02-20T11:23:21.498Z,3.200
2023-02-20T11:24:21.414Z,3
2023-02-20T11:26:21.654Z,3.099
2023-02-20T11:27:21.543Z,3
2023-02-20T11:28:22.275Z,3.299
2023-02-20T11:29:21.021Z,3
2023-02-20T11:30:22.733Z,3.200
2023-02-20T11:31:21.791Z,3.299
2023-02-20T11:33:21.360Z,3.400
2023-02-20T11:34:22.087Z,3.099
2023-02-20T11:35:21.523Z,3.200
2023-02-20T11:36:21.565Z,3.099
2023-02-20T11:37:21.823Z,3.599
2023-02-20T11:38:21.425Z,3.400
2023-02-20T11:39:22.301Z,3.299
2023-02-20T11:40:22.093Z,3.099
2023-02-20T11:41:21.685Z,3.400
2023-02-20T11:42:22.935Z,3.200
2023-02-20T11:43:22.017Z,3.299
2023-02-20T11:44:22.472Z,3.400
2023-02-20T11:45:22.294Z,3.200
2023-02-20T11:46:21.908Z,3.400
2023-02-20T11:47:21.747Z,3.200
2023-02-20T11:48:21.654Z,3.400
2023-02-20T11:49:21.936Z,3.200
2023-02-20T11:50:22.204Z,3.299
2023-02-20T11:51:21.338Z,3.400
2023-02-20T11:52:22.636Z,3.200
2023-02-20T11:53:22.274Z,3.400
2023-02-20T11:54:21.764Z,3.5
2023-02-20T11:55:22.901Z,3.700
2023-02-20T11:56:22.041Z,3.799
2023-02-20T11:57:21.537Z,3.5
2023-02-20T11:58:21.464Z,3.700
2023-02-20T11:59:22.381Z,3.5
2023-02-20T12:00:22.439Z,3.400
2023-02-20T12:01:22.972Z,3.5
2023-02-20T12:02:22.068Z,3.599
2023-02-20T12:03:22.341Z,3.400
2023-02-20T12:05:22.050Z,3.900
2023-02-20T12:06:22.513Z,3.5
2023-02-20T12:07:22.092Z,3.700
2023-02-20T12:08:22.306Z,3.299
2023-02-20T12:11:21.288Z,3.099
2023-02-20T12:12:21.985Z,3.299
2023-02-20T12:13:22.433Z,3.099
2023-02-20T12:15:21.380Z,3.400
2023-02-20T12:16:21.925Z,3
2023-02-20T12:17:23.954Z,3.200
2023-02-20T12:18:22.411Z,3.5
2023-02-20T12:19:21.679Z,3.400
2023-02-20T12:20:22.095Z,2.900
2023-02-20T12:21:22.043Z,3.200
2023-02-20T12:22:21.841Z,3.5
2023-02-20T12:23:22.555Z,3.299
2023-02-20T12:25:21.827Z,3.099
2023-02-20T12:26:22.421Z,3.299
2023-02-20T12:27:22.800Z,3.099
2023-02-20T12:28:21.846Z,2.900
2023-02-20T12:29:21.383Z,2.799
2023-02-20T12:30:22.606Z,3.099
2023-02-20T12:31:22.300Z,2.799
2023-02-20T12:32:20.756Z,2.900
2023-02-20T12:33:22.367Z,3.099
2023-02-20T12:34:22.106Z,3.200
2023-02-20T12:35:22.019Z,2.900
2023-02-20T12:36:21.542Z,3.099
2023-02-20T12:37:21.548Z,3
2023-02-20T12:38:21.956Z,3.200
2023-02-20T12:39:21.722Z,3
2023-02-20T12:40:21.920Z,3.299
2023-02-20T12:41:21.463Z,3
2023-02-20T12:42:21.646Z,3.599
2023-02-20T12:43:21.037Z,2.900
2023-02-20T12:44:21.405Z,3.099
2023-02-20T12:45:26.717Z,3.200
2023-02-20T12:46:21.939Z,3.5
2023-02-20T12:47:21.696Z,3.099
2023-02-20T12:48:21.230Z,3.299
2023-02-20T12:49:26.082Z,3.200
2023-02-20T12:50:21.973Z,3.099
2023-02-20T12:51:26.900Z,3.200
2023-02-20T12:53:21.473Z,3.099
2023-02-20T12:54:21.743Z,3
2023-02-20T12:55:29.494Z,2.900
2023-02-20T12:56:21.222Z,2.599
2023-02-20T12:57:21.530Z,2.900
2023-02-20T12:58:21.746Z,3
2023-02-20T12:59:21.501Z,3.299
2023-02-20T13:00:22.855Z,3
2023-02-20T13:01:34.287Z,3.099
2023-02-20T13:02:32.540Z,3
2023-02-20T13:03:21.522Z,2.799
2023-02-20T13:04:21.854Z,3.099
2023-02-20T13:05:22.041Z,3.200
2023-02-20T13:06:21.958Z,3
2023-02-20T13:08:22.413Z,2.900
2023-02-20T13:09:22.184Z,3.099
2023-02-20T13:10:21.599Z,3
2023-02-20T13:12:21.468Z,2.700
2023-02-20T13:13:21.789Z,3.200
2023-02-20T13:14:21.103Z,2.900
2023-02-20T13:15:24.049Z,3
2023-02-20T13:16:22.040Z,2.900
2023-02-20T13:17:21.040Z,2.700
2023-02-20T13:18:21.621Z,2.900
2023-02-20T13:19:21.485Z,3.099
2023-02-20T13:20:21.802Z,3
2023-02-20T13:21:21.359Z,3.099
2023-02-20T13:22:21.092Z,3
2023-02-20T13:23:21.805Z,3.099
2023-02-20T13:24:21.474Z,3.400
2023-02-20T13:25:21.508Z,3.299
2023-02-20T13:26:21.483Z,3
2023-02-20T13:27:22.828Z,3.099
2023-02-20T13:28:21.229Z,3.200
2023-02-20T13:29:23.210Z,3.099
2023-02-20T13:33:43.997Z,3.5
2023-02-20T13:34:21.897Z,2.900
2023-02-20T13:35:21.698Z,3.200
2023-02-20T13:38:21.354Z,2.799
2023-02-20T13:39:21.560Z,2.900
2023-02-20T13:40:21.761Z,3.599
2023-02-20T13:41:22.126Z,4.599
2023-02-20T13:42:21.484Z,4.900
2023-02-20T13:43:21.681Z,5.300
2023-02-20T13:44:22.873Z,5.599
2023-02-20T13:45:21.690Z,5.699
2023-02-20T13:46:21.490Z,5.5
2023-02-20T13:47:27.411Z,5.599
2023-02-20T13:48:21.851Z,5
2023-02-20T13:49:21.188Z,5.599
2023-02-20T13:50:22.093Z,4.800
2023-02-20T13:51:21.789Z,4.5
2023-02-20T13:52:21.317Z,4.800
2023-02-20T13:53:22.465Z,5
2023-02-20T13:54:21.865Z,4.699
2023-02-20T13:55:21.638Z,4.800
2023-02-20T13:56:22.257Z,4.400
2023-02-20T13:57:22.103Z,4.699
2023-02-20T13:58:23.206Z,4.900
2023-02-20T13:59:21.932Z,4.099
2023-02-20T14:00:22.498Z,4.400
2023-02-20T14:01:23.218Z,4.699
2023-02-20T14:02:21.600Z,4.5
2023-02-20T14:03:21.836Z,4.099
2023-02-20T14:05:22.114Z,3.700
2023-02-20T14:06:22.220Z,3.599
2023-02-20T14:07:21.563Z,3.5
2023-02-20T14:08:22.129Z,3.400
2023-02-20T14:09:21.571Z,3.200
2023-02-20T14:10:21.705Z,2.700
2023-02-20T14:14:21.829Z,2.599
2023-02-20T14:15:24.688Z,2.700
2023-02-20T14:16:22.060Z,2.799
2023-02-20T14:18:22.307Z,2.700
2023-02-20T14:21:21.623Z,2.400
2023-02-20T14:22:22.605Z,2.799
2023-02-20T14:23:21.888Z,2.599
2023-02-20T14:27:21.247Z,2.900
2023-02-20T14:28:20.438Z,2.599
2023-02-20T14:29:21.793Z,2.5
2023-02-20T14:30:21.913Z,2.400
2023-02-20T14:31:22.398Z,2.5
2023-02-20T14:33:21.681Z,2.299
2023-02-20T14:34:21.400Z,2.400
2023-02-20T14:35:21.864Z,2.099
2023-02-20T14:36:21.725Z,2.400
2023-02-20T14:37:21.365Z,2.200
2023-02-20T14:38:22.401Z,2.599
2023-02-20T14:39:21.062Z,2.5
2023-02-20T14:40:22.372Z,2.200
2023-02-20T14:41:22.080Z,2.299
2023-02-20T14:42:24.275Z,2.400
2023-02-20T14:43:22.111Z,2.099
2023-02-20T14:44:21.520Z,2.5
2023-02-20T14:45:22.174Z,2.299
2023-02-20T14:47:22.027Z,2.400
2023-02-20T14:48:21.740Z,2.200
2023-02-20T14:49:21.220Z,2.400
2023-02-20T14:51:21.867Z,2.799
2023-02-20T14:52:22.264Z,2.700
2023-02-20T14:53:21.778Z,3
2023-02-20T14:54:22.281Z,2.900
2023-02-20T14:55:21.695Z,3.299
2023-02-20T14:56:22.298Z,3.200
2023-02-20T14:57:21.319Z,3.299
2023-02-20T14:59:21.760Z,3.400
2023-02-20T15:00:22.946Z,3.200
2023-02-20T15:02:32.825Z,3.799
2023-02-20T15:03:30.251Z,3.5
2023-02-20T15:04:22.393Z,3.799
2023-02-20T15:05:23.428Z,3.700
2023-02-20T15:06:22.039Z,4.300
2023-02-20T15:07:22.397Z,3.599
2023-02-20T15:08:22.423Z,3.799
2023-02-20T15:09:23.276Z,3.700
2023-02-20T15:10:23.177Z,3.5
2023-02-20T15:11:21.891Z,3.799
2023-02-20T15:12:21.789Z,4.5
2023-02-20T15:13:22.734Z,4.099
2023-02-20T15:14:21.976Z,3.900
2023-02-20T15:15:22.986Z,4.199
2023-02-20T15:17:21.873Z,4.400
2023-02-20T15:18:26.843Z,4.099
2023-02-20T15:19:21.145Z,4.400
2023-02-20T15:20:27.138Z,4.199
2023-02-20T15:21:26.608Z,4.800
2023-02-20T15:22:21.768Z,4.699
2023-02-20T15:23:21.489Z,5.099
2023-02-20T15:24:21.669Z,4.699
2023-02-20T15:25:21.989Z,5.099
2023-02-20T15:26:21.305Z,4.900
2023-02-20T15:27:21.853Z,4.800
2023-02-20T15:28:30.313Z,4.400
2023-02-20T15:29:24.933Z,4.599
2023-02-20T15:30:21.786Z,4.900
2023-02-20T15:32:22.627Z,4.599
2023-02-20T15:33:22.915Z,4.800
2023-02-20T15:35:22.300Z,5.099
2023-02-20T15:36:22.269Z,4.800
2023-02-20T15:38:21.771Z,4.599
2023-02-20T15:39:21.380Z,5.199
2023-02-20T15:40:36.975Z,5.099
2023-02-20T15:41:22.408Z,4.699
2023-02-20T15:42:35.854Z,5
2023-02-20T15:43:37.827Z,4.5
2023-02-20T15:44:22.510Z,4.900
2023-02-20T15:45:22.527Z,5
2023-02-20T15:46:22.834Z,4.599
2023-02-20T15:47:22.508Z,5
2023-02-20T15:48:21.932Z,4.900
2023-02-20T15:49:21.968Z,5.400
2023-02-20T15:50:22.042Z,5.5
2023-02-20T15:51:21.727Z,5.099
2023-02-20T15:52:22.600Z,5.400
2023-02-20T15:53:22.156Z,4.5
2023-02-20T15:54:22.072Z,4.699
2023-02-20T15:55:21.793Z,5.099
2023-02-20T15:56:43.984Z,4.800
2023-02-20T15:58:25.282Z,4.599
2023-02-20T16:00:23.651Z,4.699
2023-02-20T16:01:22.440Z,4.199